Terminal Aerodrome Forecast
Issued by NWS

Home | Current Version | Previous Version | Text Only | Print | Product List | Glossary On
Versions: 1 2 3 4 5 6 7 8 9 10 11 12 13 14 15 16 17 18 19 20 21 22 23 24 25 26 27 28 29 30 31
000
FTUS43 KGRB 250800 AAB
TAFCWA
TAF AMD
KCWA 250800Z 2508/2606 24007KT 4SM BR BKN004 OVC006 WS012/30035KT
      TEMPO 2508/2509 2SM BR OVC004
     FM250900 28009KT 6SM BR SCT012 WS012/30035KT
     FM251500 29014G24KT P6SM SKC
     FM252300 29008KT P6SM SKC
      AMD LTD TO CLD VIS AND WIND TIL 251200=

USA.gov is the U.S. government's official web portal to all federal, state and local government web resources and services.